createdAt,value
2022-09-28T00:00:38.746Z,118.59
2022-09-28T00:06:09.468Z,118.01
2022-09-28T00:11:01.883Z,118.50
2022-09-28T00:16:01.874Z,117.68
2022-09-28T00:21:01.707Z,117.35
2022-09-28T00:26:01.670Z,117.43
2022-09-28T00:31:01.755Z,117.27
2022-09-28T00:36:01.538Z,117.27
2022-09-28T00:41:01.554Z,117.11
2022-09-28T00:46:01.508Z,117.27
2022-09-28T00:51:01.339Z,116.06
2022-09-28T00:56:01.267Z,116.14
2022-09-28T01:01:01.273Z,116.62
2022-09-28T01:06:01.145Z,115.98
2022-09-28T01:11:01.091Z,116.14
2022-09-28T01:16:01.121Z,116.06
2022-09-28T01:21:00.953Z,115.90
2022-09-28T01:26:00.880Z,115.74
2022-09-28T01:31:00.862Z,115.35
2022-09-28T01:36:00.748Z,115.90
2022-09-28T01:41:00.693Z,116.22
2022-09-28T01:46:00.660Z,116.70
2022-09-28T01:51:00.555Z,115.98
2022-09-28T01:56:00.505Z,115.82
2022-09-28T02:01:01.408Z,115.90
2022-09-28T02:06:00.364Z,116.46
2022-09-28T02:11:00.286Z,116.46
2022-09-28T02:16:01.208Z,116.30
2022-09-28T02:21:00.167Z,116.70
2022-09-28T02:26:01.037Z,115.98
2022-09-28T02:31:00.019Z,116.46
2022-09-28T02:35:59.983Z,116.14
2022-09-28T02:40:59.986Z,116.54
2022-09-28T02:46:00.070Z,116.06
2022-09-28T02:51:00.740Z,116.14
2022-09-28T02:55:59.691Z,116.86
2022-09-28T03:01:00.639Z,116.14
2022-09-28T03:05:59.564Z,115.74
2022-09-28T03:10:59.543Z,115.74
2022-09-28T03:16:00.451Z,116.54
2022-09-28T03:20:59.349Z,116.54
2022-09-28T03:26:00.272Z,116.54
2022-09-28T03:30:59.225Z,116.62
2022-09-28T03:35:59.150Z,116.70
2022-09-28T03:40:59.177Z,116.54
2022-09-28T03:45:59.145Z,116.86
2022-09-28T03:50:59.938Z,117.35
2022-09-28T03:55:58.940Z,117.11
2022-09-28T04:00:59.822Z,118.17
2022-09-28T04:05:58.785Z,117.76
2022-09-28T04:10:58.738Z,117.92
2022-09-28T04:16:07.737Z,118.09
2022-09-28T04:21:01.489Z,119.17
2022-09-28T04:26:00.479Z,118.92
2022-09-28T04:31:02.423Z,120.19
2022-09-28T04:36:01.368Z,119.76
2022-09-28T04:41:01.450Z,120.19
2022-09-28T04:46:00.293Z,120.62
2022-09-28T04:51:01.115Z,121.32
2022-09-28T04:56:00.108Z,121.75
2022-09-28T05:01:01.048Z,122.55
2022-09-28T05:06:00.114Z,123.26
2022-09-28T05:10:59.892Z,123.36
2022-09-28T05:16:04.363Z,123.99
2022-09-28T05:21:00.823Z,124.36
2022-09-28T05:26:00.651Z,124.08
2022-09-28T05:30:59.657Z,125.37
2022-09-28T05:36:01.448Z,125.37
2022-09-28T05:41:03.173Z,125.84
2022-09-28T05:46:00.543Z,126.31
2022-09-28T05:50:59.368Z,126.50
2022-09-28T05:55:59.321Z,126.12
2022-09-28T06:01:00.300Z,125.37
2022-09-28T06:05:59.202Z,125.00
2022-09-28T06:10:59.147Z,124.91
2022-09-28T06:15:59.071Z,123.72
2022-09-28T06:20:58.978Z,123.44
2022-09-28T06:25:59.853Z,122.82
2022-09-28T06:30:58.876Z,122.11
2022-09-28T06:35:58.775Z,121.32
2022-09-28T06:40:58.742Z,121.67
2022-09-28T06:45:58.640Z,120.62
2022-09-28T06:50:58.596Z,119.17
2022-09-28T06:55:58.535Z,118.75
2022-09-28T07:00:58.652Z,118.09
2022-09-28T07:05:58.418Z,116.62
2022-09-28T07:10:58.339Z,115.27
2022-09-28T07:15:58.234Z,114.33
2022-09-28T07:20:58.167Z,112.80
2022-09-28T07:25:58.134Z,112.72
2022-09-28T07:30:58.099Z,111.90
2022-09-28T07:35:58.175Z,110.87
2022-09-28T07:40:57.930Z,109.29
2022-09-28T07:45:57.891Z,105.34
2022-09-28T07:50:57.792Z,101.66
2022-09-28T07:55:57.750Z,98.92
2022-09-28T08:00:57.748Z,96.37
2022-09-28T08:05:57.634Z,95.45
2022-09-28T08:10:57.556Z,95.07
2022-09-28T08:15:57.462Z,94.80
2022-09-28T08:20:57.462Z,94.96
2022-09-28T08:25:57.562Z,94.75
2022-09-28T08:30:57.330Z,94.75
2022-09-28T08:35:57.195Z,95.45
2022-09-28T08:40:57.216Z,94.75
2022-09-28T08:45:57.107Z,95.18
2022-09-28T08:50:57.047Z,94.22
2022-09-28T08:55:56.943Z,94.68
2022-09-28T09:00:56.921Z,93.94
2022-09-28T09:05:56.766Z,93.73
2022-09-28T09:10:56.715Z,93.21
2022-09-28T09:15:56.662Z,90.32
2022-09-28T09:20:56.592Z,83.36
2022-09-28T09:25:56.493Z,75.12
2022-09-28T09:30:56.485Z,73.93
2022-09-28T09:35:56.381Z,75.12
2022-09-28T09:40:56.436Z,77.46
2022-09-28T09:45:56.329Z,79.89
2022-09-28T09:50:56.264Z,80.65
2022-09-28T09:55:56.151Z,76.27
2022-09-28T10:00:56.115Z,74.13
2022-09-28T10:05:55.992Z,74.72
2022-09-28T10:10:55.993Z,76.62
2022-09-28T10:15:55.854Z,78.99
2022-09-28T10:20:55.847Z,81.82
2022-09-28T10:25:55.715Z,85.12
2022-09-28T10:30:55.787Z,86.97
2022-09-28T10:35:55.576Z,89.17
2022-09-28T10:40:55.599Z,90.90
2022-09-28T10:45:55.593Z,92.70
2022-09-28T10:50:55.422Z,93.31
2022-09-28T10:55:55.372Z,92.19
2022-09-28T11:00:55.485Z,92.39
2022-09-28T11:05:55.213Z,92.19
2022-09-28T11:10:55.343Z,92.90
2022-09-28T11:15:55.130Z,94.25
2022-09-28T11:20:54.985Z,94.48
2022-09-28T11:25:55.068Z,95.83
2022-09-28T11:30:54.883Z,96.32
2022-09-28T11:35:54.804Z,95.45
2022-09-28T11:40:54.840Z,95.02
2022-09-28T11:45:54.776Z,94.59
2022-09-28T11:50:54.695Z,94.70
2022-09-28T11:55:54.523Z,93.75
2022-09-28T12:00:55.064Z,94.64
2022-09-28T12:05:54.460Z,94.06
2022-09-28T12:10:54.357Z,94.12
2022-09-28T12:16:22.976Z,94.33
2022-09-28T12:20:55.258Z,93.80
2022-09-28T12:25:54.118Z,93.96
2022-09-28T12:30:54.114Z,95.34
2022-09-28T12:35:54.038Z,95.29
2022-09-28T12:40:54.010Z,95.45
2022-09-28T12:46:11.008Z,95.83
2022-09-28T12:50:57.774Z,95.72
2022-09-28T12:55:53.739Z,95.23
2022-09-28T13:00:53.688Z,95.07
2022-09-28T13:05:53.584Z,94.38
2022-09-28T13:10:53.538Z,94.38
2022-09-28T13:15:53.541Z,94.64
2022-09-28T13:20:53.374Z,94.75
2022-09-28T13:25:53.342Z,95.29
2022-09-28T13:30:53.339Z,94.59
2022-09-28T13:35:53.233Z,95.02
2022-09-28T13:40:53.268Z,94.86
2022-09-28T13:45:53.156Z,94.70
2022-09-28T13:50:53.121Z,95.45
2022-09-28T13:55:52.956Z,95.72
2022-09-28T14:00:52.870Z,97.88
2022-09-28T14:05:52.795Z,96.70
2022-09-28T14:10:52.762Z,97.09
2022-09-28T14:15:52.731Z,98.40
2022-09-28T14:20:52.641Z,96.87
2022-09-28T14:25:52.539Z,96.65
2022-09-28T14:30:52.515Z,97.43
2022-09-28T14:35:52.443Z,95.88
2022-09-28T14:40:52.488Z,95.83
2022-09-28T14:45:52.391Z,95.77
2022-09-28T14:50:52.239Z,95.07
2022-09-28T14:55:52.140Z,95.07
2022-09-28T15:00:52.074Z,95.07
2022-09-28T15:05:52.032Z,94.43
2022-09-28T15:10:54.676Z,95.10
2022-09-28T15:15:51.936Z,93.59
2022-09-28T15:20:51.868Z,93.91
2022-09-28T15:25:51.835Z,95.10
2022-09-28T15:30:51.748Z,94.89
2022-09-28T15:35:51.595Z,94.57
2022-09-28T15:40:51.598Z,95.21
2022-09-28T15:45:51.598Z,93.80
2022-09-28T15:50:51.414Z,93.80
2022-09-28T15:55:51.336Z,93.96
2022-09-28T16:00:51.281Z,93.75
2022-09-28T16:05:51.221Z,94.06
2022-09-28T16:10:51.175Z,93.85
2022-09-28T16:15:51.166Z,94.12
2022-09-28T16:20:51.202Z,94.64
2022-09-28T16:25:50.949Z,94.91
2022-09-28T16:30:51.053Z,94.86
2022-09-28T16:35:50.808Z,94.43
2022-09-28T16:40:50.778Z,94.96
2022-09-28T16:45:50.709Z,96.26
2022-09-28T16:50:50.630Z,96.21
2022-09-28T16:55:50.556Z,96.87
2022-09-28T17:00:50.455Z,97.37
2022-09-28T17:05:50.516Z,97.83
2022-09-28T17:11:13.551Z,98.63
2022-09-28T17:15:51.309Z,99.79
2022-09-28T17:20:50.196Z,100.45
2022-09-28T17:25:50.157Z,100.69
2022-09-28T17:30:50.132Z,101.72
2022-09-28T17:35:50.100Z,103.15
2022-09-28T17:40:50.075Z,103.40
2022-09-28T17:45:49.968Z,103.97
2022-09-28T17:50:49.849Z,104.88
2022-09-28T17:55:49.772Z,105.80
2022-09-28T18:00:49.711Z,106.40
2022-09-28T18:05:49.640Z,107.48
2022-09-28T18:10:49.567Z,109.29
2022-09-28T18:15:49.597Z,110.80
2022-09-28T18:20:50.659Z,111.61
2022-09-28T18:25:49.354Z,113.10
2022-09-28T18:30:49.313Z,113.03
2022-09-28T18:35:49.234Z,114.72
2022-09-28T18:40:49.240Z,115.90
2022-09-28T18:45:49.090Z,116.46
2022-09-28T18:50:49.018Z,116.86
2022-09-28T18:55:48.977Z,116.94
2022-09-28T19:00:48.939Z,117.27
2022-09-28T19:05:48.838Z,118.09
2022-09-28T19:10:48.759Z,117.76
2022-09-28T19:15:48.863Z,118.25
2022-09-28T19:20:48.643Z,117.60
2022-09-28T19:25:48.901Z,117.76
2022-09-28T19:30:48.552Z,118.01
2022-09-28T19:35:48.447Z,117.84
2022-09-28T19:40:48.410Z,118.84
2022-09-28T19:45:48.391Z,118.17
2022-09-28T19:50:48.293Z,118.50
2022-09-28T19:55:48.168Z,118.42
2022-09-28T20:00:48.095Z,118.50
2022-09-28T20:05:48.048Z,118.75
2022-09-28T20:10:47.990Z,118.01
2022-09-28T20:15:47.993Z,118.42
2022-09-28T20:20:47.841Z,118.09
2022-09-28T20:25:47.824Z,118.17
2022-09-28T20:30:47.753Z,118.75
2022-09-28T20:35:47.668Z,118.34
2022-09-28T20:40:47.664Z,118.17
2022-09-28T20:45:47.509Z,118.42
2022-09-28T20:50:47.513Z,118.50
2022-09-28T20:55:47.372Z,119.09
2022-09-28T21:00:47.324Z,118.84
2022-09-28T21:05:47.257Z,118.67
2022-09-28T21:10:47.180Z,118.50
2022-09-28T21:15:47.188Z,119.26
2022-09-28T21:20:47.048Z,119.09
2022-09-28T21:25:47.068Z,119.34
2022-09-28T21:30:46.970Z,119.09
2022-09-28T21:35:46.877Z,119.17
2022-09-28T21:40:47.785Z,118.84
2022-09-28T21:45:46.720Z,119.76
2022-09-28T21:50:46.663Z,119.09
2022-09-28T21:55:46.608Z,119.68
2022-09-28T22:00:46.543Z,119.94
2022-09-28T22:05:46.436Z,120.19
2022-09-28T22:10:46.416Z,119.60
2022-09-28T22:15:46.390Z,119.76
2022-09-28T22:20:46.245Z,120.28
2022-09-28T22:25:46.220Z,119.94
2022-09-28T22:30:46.269Z,120.62
2022-09-28T22:35:46.073Z,120.11
2022-09-28T22:40:47.483Z,120.97
2022-09-28T22:45:45.953Z,120.54
2022-09-28T22:50:45.859Z,120.97
2022-09-28T22:55:45.796Z,121.23
2022-09-28T23:00:45.757Z,120.79
2022-09-28T23:05:45.686Z,121.23
2022-09-28T23:10:45.603Z,121.84
2022-09-28T23:15:45.552Z,122.73
2022-09-28T23:20:45.475Z,123.44
2022-09-28T23:25:45.430Z,123.99
2022-09-28T23:30:45.424Z,124.54
2022-09-28T23:35:46.225Z,124.82
2022-09-28T23:40:45.258Z,125.65
2022-09-28T23:45:45.126Z,126.21
2022-09-28T23:50:45.093Z,126.21
2022-09-28T23:55:45.045Z,127.17
